Pagrindinis puslapis
METAR-TAF:

METAR-TAF

Oro uostai :

Doha, Kataras

platuma: 25-16-23N, ilguma: 51-36-29E, Aukštis: 4 m

Dabartinis oras

Ataskaita buvo paskelbta 29 minutes, ne 09:00 UTC
Vėjas 9 kt iš Šiaurės/Šiaurės Rytų
Temperatūra 21°C
Drėgmė 46%
Slėgis 1017 hPa
Matomumas 10 km arba daugiau
nėra debesų žemiau 1500 m ir nėra kamuolinių lietaus debesų

METAR: OTHH 210900Z AUTO 02009KT CAVOK 21/09 Q1017 NOSIG

Laikas: 12:29 (09:29 UTC)

Prognozė

Ataskaita buvo paskelbta 4 valandos ir 28 minutes, ne 05:01 UTC
Prognozė galioja nuo 21 metu 06 UTC su 22 metu 12 UTC
Vėjas 11 kt iš Šiaurės/Šiaurės Vakarų
Matomumas 10 km arba daugiau
nėra debesų žemiau 1500 m ir nėra kamuolinių lietaus debesų
Tapsmas
nuo 21 metu 08 UTC su 21 metu 10 UTC
Vėjas 11 kt iš Šiaurės/Šiaurės Rytų
Laikinai
nuo 21 metu 18 UTC su 21 metu 23 UTC
Vėjas 3 kt nuo kintamojo kryptimis
Matomumas: 6000 m

TAF: OTHH 210501Z 2106/2212 33011KT CAVOK BECMG 2108/2110 03011KT TEMPO 2118/2123 VRB03KT 6000 NSC

Orai ataskaitas ir orų prognozės (METAR, TAF).

turimą stotys yra geltonos ir raudonos taškus žemėlapyje.

Perkelti pele per norėdami pamatyti stoties vardą.

Tada spustelėkite, norėdami matyti oro stebėjimo ir prognozės.

Norėdami pakeisti žemėlapį: spustelėkite ant žalios mygtukų su juodo kryžiaus žemyn,; žalią mygtuką su brūkšneliu, jei norite nutolinti; arba žalių rodyklių gretimoms žemėlapius.


METAR-TAF: